NCAR-RAP Real-Time Weather Data

Output produced by METARs form (12 May 2021  10:59 UTC)
found at http://weather.rap.ucar.edu/surface/
 
KBFF 120953Z AUTO 10006KT 7SM CLR 02/01 A3028 RMK AO2 SLP254 T00170006
KBFF 120853Z AUTO 11004KT 8SM CLR 02/01 A3028 RMK AO2 SLP257 T00170006 57007
KBFF 120753Z AUTO 11006KT 10SM CLR 03/01 A3029 RMK AO2 SLP258 T00280011
KBFF 120653Z AUTO 10008KT 10SM FEW050 04/02 A3029 RMK AO2 SLP259 T00390017 401220039
KBFF 120553Z AUTO 15003KT 10SM BKN050 05/02 A3030 RMK AO2 SLP262 60000 T00500022 10083 20039 58004
KBFF 120453Z AUTO 11005KT 10SM FEW075 04/02 A3031 RMK AO2 SLP269 T00390017
KBFF 120353Z AUTO 16004KT 10SM BKN075 06/03 A3032 RMK AO2 SLP272 T00560033
KBFF 120253Z AUTO 13005KT 10SM BKN080 06/03 A3031 RMK AO2 SLP270 60000 T00560033 53007
KBFF 120153Z AUTO 13008KT 10SM FEW042 SCT050 06/04 A3029 RMK AO2 RAE05 SLP262 P0000 T00610039
KBFF 120130Z AUTO 13009KT 10SM FEW018 SCT030 OVC038 07/04 A3029 RMK AO2 RAE05 P0000 T00720044
KBFF 120053Z AUTO 18007KT 4SM -RA BKN021 OVC031 07/04 A3029 RMK AO2 RAE2359B46 SLP261 P0000 T00720039
KBFF 120050Z AUTO 17011KT 4SM -RA FEW018 BKN023 OVC031 08/04 A3029 RMK AO2 RAE2359B46 P0000
KBFF 112353Z AUTO 11006KT 10SM -RA SCT022 SCT028 OVC040 08/04 A3029 RMK AO2 WSHFT 2246 SLP258 P0002 60004 T00780044 10122 20067 53010
KBFF 112329Z AUTO 14007KT 10SM -RA BKN024 BKN032 OVC055 07/04 A3029 RMK AO2 WSHFT 2246 P0002 T00720044
KBFF 112300Z AUTO 12017G23KT 4SM -RA FEW025 BKN040 OVC050 07/04 A3028 RMK AO2 WSHFT 2246 P0001 T00670039
KBFF 112253Z AUTO 14014KT 2 1/2SM RA FEW025 BKN030 OVC041 07/04 A3028 RMK AO2 RAB44 SLP256 P0002 T00720039
KBFF 112153Z AUTO 14012KT 10SM FEW028 SCT048 SCT075 12/01 A3025 RMK AO2 SLP241 T01170011
KBFF 112053Z AUTO 15013KT 10SM FEW070 11/02 A3025 RMK AO2 RAE20 SLP243 P0000 60000 T01060022 56005